Time;durP1;ratioP1;P1;durP2;ratioP2;P2;SDS_P1;SDS_P2;PMS_P1;PMS_P2;Temp;Humidity;BMP_temperature;BMP_pressure;BME280_temperature;BME280_humidity;BME280_pressure;Samples;Min_cycle;Max_cycle;Signal;HPM_P1;HPM_P2
2021/07/04 00:01:02;;;;;;;5.53;5.03;;;;;;;20.42;65.57;96383.25;5094578;28;20180;-68
2021/07/04 00:03:28;;;;;;;5.73;5.20;;;;;;;20.24;66.20;96389.53;5096019;28;20198;-69
2021/07/04 00:05:53;;;;;;;6.27;5.67;;;;;;;20.08;66.99;96389.19;5096294;28;20765;-68
2021/07/04 00:08:22;;;;;;;7.60;6.70;;;;;;;20.06;67.13;96379.84;5096173;28;20568;-67
2021/07/04 00:10:51;;;;;;;7.47;5.87;;;;;;;20.13;67.21;96380.50;5093989;28;20184;-67
2021/07/04 00:13:17;;;;;;;6.87;6.27;;;;;;;19.93;68.07;96380.88;5093110;28;20419;-68
2021/07/04 00:15:44;;;;;;;7.03;6.27;;;;;;;19.99;68.21;96387.94;5093223;28;20415;-68
2021/07/04 00:18:15;;;;;;;6.93;6.20;;;;;;;20.01;68.07;96393.84;5093050;28;20553;-68
2021/07/04 00:20:41;;;;;;;7.00;6.30;;;;;;;19.90;68.21;96392.78;5093622;28;20420;-69
2021/07/04 00:23:06;;;;;;;7.00;6.07;;;;;;;19.92;68.33;96403.19;5092967;28;20981;-68
2021/07/04 00:25:32;;;;;;;6.83;5.63;;;;;;;19.68;69.38;96394.38;5093235;28;20235;-68
2021/07/04 00:27:59;;;;;;;7.87;6.50;;;;;;;19.94;68.29;96403.75;5088015;28;20440;-68
2021/07/04 00:30:25;;;;;;;7.00;6.40;;;;;;;19.93;68.33;96410.13;5093153;28;20181;-68
2021/07/04 00:32:51;;;;;;;7.40;6.20;;;;;;;20.16;67.49;96405.84;5091934;28;20415;-68
2021/07/04 00:35:19;;;;;;;8.37;6.80;;;;;;;20.03;68.14;96401.56;5093126;28;20424;-68
2021/07/04 00:37:45;;;;;;;8.70;6.70;;;;;;;19.76;69.55;96407.31;5092802;28;20501;-69
2021/07/04 00:40:12;;;;;;;9.20;7.20;;;;;;;20.05;68.21;96402.16;5093378;28;20761;-69
2021/07/04 00:42:38;;;;;;;7.87;6.30;;;;;;;20.14;67.94;96391.97;5092864;28;20412;-68
2021/07/04 00:45:30;;;;;;;8.07;7.23;;;;;;;20.13;67.94;96390.34;5092227;28;20431;-67
2021/07/04 00:47:56;;;;;;;7.53;6.83;;;;;;;20.18;67.33;96382.47;5092766;28;20462;-69
2021/07/04 00:50:24;;;;;;;7.17;6.17;;;;;;;20.06;68.22;96377.97;5092775;28;20442;-69
2021/07/04 00:52:52;;;;;;;8.70;7.20;;;;;;;20.19;67.48;96368.94;5091385;28;20419;-69
2021/07/04 00:55:17;;;;;;;8.07;6.80;;;;;;;20.10;68.36;96371.16;5092742;28;21001;-69
2021/07/04 00:57:45;;;;;;;6.93;6.17;;;;;;;20.20;67.84;96373.22;5087551;28;20593;-69
2021/07/04 01:00:15;;;;;;;7.67;6.83;;;;;;;20.15;67.49;96367.00;5099288;28;20185;-68
2021/07/04 01:02:41;;;;;;;8.07;6.50;;;;;;;20.16;67.71;96379.25;5091346;28;20423;-68
2021/07/04 01:05:10;;;;;;;7.37;6.50;;;;;;;20.10;68.03;96368.50;5092084;28;20541;-69
2021/07/04 01:07:36;;;;;;;8.83;6.50;;;;;;;20.15;67.55;96372.31;5092377;28;20432;-69
2021/07/04 01:10:04;;;;;;;9.63;7.03;;;;;;;20.17;67.57;96376.34;5092156;28;20422;-68
2021/07/04 01:12:30;;;;;;;7.90;6.40;;;;;;;20.14;67.73;96376.00;5092224;28;20177;-67
2021/07/04 01:14:55;;;;;;;6.97;6.27;;;;;;;20.15;67.76;96380.28;5091238;28;20473;-69
2021/07/04 01:17:21;;;;;;;7.43;6.73;;;;;;;20.18;67.66;96377.13;5074202;28;20201;-68
2021/07/04 01:19:47;;;;;;;10.73;6.50;;;;;;;20.12;67.61;96373.56;5091330;28;20525;-69
2021/07/04 01:22:13;;;;;;;8.07;6.40;;;;;;;20.13;67.82;96369.06;5091150;28;20423;-69
2021/07/04 01:24:39;;;;;;;7.30;6.60;;;;;;;20.09;67.65;96369.53;5090942;28;20270;-69
2021/07/04 01:27:04;;;;;;;8.80;7.13;;;;;;;19.90;68.42;96370.72;5086020;28;20705;-69
2021/07/04 01:29:30;;;;;;;7.70;7.00;;;;;;;19.90;68.73;96376.84;5092234;28;20185;-69
2021/07/04 01:31:55;;;;;;;9.20;7.10;;;;;;;20.01;68.24;96377.88;5092394;28;20233;-68
2021/07/04 01:34:21;;;;;;;8.10;6.43;;;;;;;20.04;68.30;96372.06;5091602;28;20528;-68
2021/07/04 01:36:47;;;;;;;7.70;6.90;;;;;;;19.92;68.57;96380.06;5092364;28;20559;-69
2021/07/04 01:39:12;;;;;;;7.23;6.53;;;;;;;19.79;69.10;96374.97;5093389;28;20193;-69
2021/07/04 01:41:38;;;;;;;11.60;6.60;;;;;;;19.52;70.23;96374.63;5096114;28;20181;-69
2021/07/04 01:44:04;;;;;;;6.50;5.93;;;;;;;19.48;70.15;96369.75;5095742;28;20207;-68
2021/07/04 01:46:29;;;;;;;7.10;6.50;;;;;;;19.33;70.72;96380.00;5094144;28;20569;-68
2021/07/04 01:48:55;;;;;;;8.33;6.47;;;;;;;19.57;69.60;96372.88;5095641;28;20193;-69
2021/07/04 01:51:20;;;;;;;8.10;6.57;;;;;;;19.60;69.37;96371.59;5095245;28;20181;-69
2021/07/04 01:53:46;;;;;;;7.73;6.70;;;;;;;19.57;69.41;96367.56;5095543;28;20209;-68
2021/07/04 01:56:12;;;;;;;10.43;7.60;;;;;;;19.60;69.20;96371.59;5095446;28;20205;-69
2021/07/04 01:58:39;;;;;;;7.50;6.63;;;;;;;19.74;68.87;96370.34;5089331;28;20189;-69
2021/07/04 02:01:05;;;;;;;7.27;6.13;;;;;;;19.80;68.67;96371.25;5095520;28;20184;-68
2021/07/04 02:03:31;;;;;;;8.43;7.17;;;;;;;19.75;68.43;96361.31;5094531;28;20493;-69
2021/07/04 02:05:57;;;;;;;8.00;7.20;;;;;;;19.66;69.16;96362.69;5094603;28;20462;-69
2021/07/04 02:08:22;;;;;;;11.03;6.73;;;;;;;19.54;69.77;96354.72;5096293;28;20535;-69
2021/07/04 02:10:48;;;;;;;9.90;7.97;;;;;;;19.45;70.21;96359.56;5096599;28;20605;-68
2021/07/04 02:13:13;;;;;;;10.40;8.07;;;;;;;19.48;70.09;96359.13;5095907;28;20197;-69
2021/07/04 02:15:40;;;;;;;8.43;7.50;;;;;;;19.22;71.08;96367.50;5096092;28;20201;-68
2021/07/04 02:18:08;;;;;;;8.00;7.20;;;;;;;19.45;70.88;96362.22;5095687;28;20217;-68
2021/07/04 02:20:39;;;;;;;8.57;7.70;;;;;;;19.06;71.94;96364.47;5096161;28;20422;-68
2021/07/04 02:23:07;;;;;;;8.13;7.33;;;;;;;19.47;70.51;96360.16;5095059;28;20557;-68
2021/07/04 02:25:37;;;;;;;9.20;7.90;;;;;;;19.42;70.87;96359.22;5095554;28;20875;-69
2021/07/04 02:28:04;;;;;;;11.40;8.93;;;;;;;19.54;70.15;96356.56;5090693;28;20443;-68
2021/07/04 02:30:30;;;;;;;9.00;8.10;;;;;;;19.62;69.69;96353.59;5095631;28;20420;-67
2021/07/04 02:32:56;;;;;;;10.47;9.07;;;;;;;19.44;70.48;96355.28;5095593;28;20450;-69
2021/07/04 02:35:22;;;;;;;10.33;8.23;;;;;;;19.48;70.67;96353.81;5095085;28;20223;-68
2021/07/04 02:37:48;;;;;;;9.00;8.10;;;;;;;19.42;70.97;96360.03;5094991;28;20208;-69
2021/07/04 02:40:13;;;;;;;9.53;8.00;;;;;;;19.16;71.79;96361.25;5094839;28;20427;-69
2021/07/04 02:42:40;;;;;;;13.50;7.63;;;;;;;19.45;70.67;96354.25;5094951;28;20182;-67
2021/07/04 02:45:06;;;;;;;8.23;7.40;;;;;;;19.64;69.92;96362.13;5094615;28;20189;-67
2021/07/04 02:47:32;;;;;;;12.00;8.17;;;;;;;19.47;70.57;96354.03;5095169;28;20450;-68
2021/07/04 02:49:57;;;;;;;13.67;8.07;;;;;;;19.56;70.35;96354.50;5095318;28;20423;-68
2021/07/04 02:52:23;;;;;;;10.40;8.43;;;;;;;19.22;71.92;96348.91;5094212;28;20265;-68
2021/07/04 02:54:49;;;;;;;13.77;7.93;;;;;;;19.34;71.57;96347.09;5095090;28;20641;-68
2021/07/04 02:57:14;;;;;;;10.10;8.10;;;;;;;19.64;70.27;96341.69;5090180;28;20206;-68
2021/07/04 02:59:40;;;;;;;10.43;7.60;;;;;;;19.71;70.03;96346.88;5094840;28;20197;-69
2021/07/04 03:02:06;;;;;;;8.93;8.13;;;;;;;19.59;70.03;96343.41;5095347;28;20197;-68
2021/07/04 03:04:31;;;;;;;11.13;9.00;;;;;;;19.70;69.95;96345.25;5094888;28;20553;-68
2021/07/04 03:06:57;;;;;;;9.53;8.50;;;;;;;19.17;71.89;96347.75;5094581;28;20198;-68
2021/07/04 03:09:23;;;;;;;11.33;8.70;;;;;;;19.46;71.46;96341.81;5097125;28;20177;-69
2021/07/04 03:11:52;;;;;;;9.50;8.50;;;;;;;19.25;72.04;96340.50;5094615;28;20177;-69
2021/07/04 03:14:18;;;;;;;9.80;8.70;;;;;;;19.38;71.60;96337.63;5094161;28;20412;-68
2021/07/04 03:16:43;;;;;;;9.07;8.17;;;;;;;19.30;72.23;96336.13;5094646;28;20494;-68
2021/07/04 03:19:09;;;;;;;10.00;8.07;;;;;;;19.53;71.20;96339.81;5094414;28;20189;-68
2021/07/04 03:21:34;;;;;;;9.23;8.13;;;;;;;19.70;70.53;96341.81;5094425;28;20239;-67
2021/07/04 03:24:00;;;;;;;9.13;8.20;;;;;;;19.39;71.29;96344.56;5094282;28;20228;-69
2021/07/04 03:26:26;;;;;;;8.43;7.60;;;;;;;19.67;70.55;96344.91;5086505;28;20205;-68
2021/07/04 03:28:51;;;;;;;11.53;8.60;;;;;;;19.50;70.43;96342.94;5089967;28;20185;-66
2021/07/04 03:31:17;;;;;;;9.87;8.10;;;;;;;19.89;69.11;96338.00;5094444;28;20546;-67
2021/07/04 03:33:42;;;;;;;9.07;8.07;;;;;;;20.03;68.68;96335.91;5089417;28;20189;-69
2021/07/04 03:36:08;;;;;;;7.50;6.50;;;;;;;20.03;68.71;96327.09;5093757;28;20262;-68
2021/07/04 03:38:34;;;;;;;7.73;6.93;;;;;;;20.14;68.54;96323.63;5094574;28;20205;-69
2021/07/04 03:40:59;;;;;;;7.67;6.87;;;;;;;20.16;67.81;96326.84;5094445;28;20181;-69
2021/07/04 03:43:25;;;;;;;9.20;7.40;;;;;;;20.21;67.94;96331.47;5084280;28;20253;-69
2021/07/04 03:45:52;;;;;;;8.70;7.70;;;;;;;20.23;67.36;96326.72;5093532;28;20558;-70
2021/07/04 03:48:17;;;;;;;10.20;7.10;;;;;;;20.22;67.17;96325.09;5093988;28;20185;-70
2021/07/04 03:50:43;;;;;;;8.33;7.00;;;;;;;20.26;67.33;96320.94;5093812;28;20427;-68
2021/07/04 03:53:09;;;;;;;9.57;6.87;;;;;;;20.25;67.49;96324.63;5093410;28;20170;-66
2021/07/04 03:55:34;;;;;;;9.10;6.70;;;;;;;20.29;67.47;96336.41;5093395;28;20188;-68
2021/07/04 03:58:00;;;;;;;8.13;6.63;;;;;;;20.32;67.33;96329.81;5093208;28;20202;-67
2021/07/04 04:00:25;;;;;;;8.20;7.40;;;;;;;20.39;67.23;96341.13;5093201;28;20181;-68
2021/07/04 04:02:51;;;;;;;7.77;6.83;;;;;;;20.47;66.96;96340.78;5094198;28;20648;-67
2021/07/04 04:05:16;;;;;;;9.50;7.10;;;;;;;20.55;66.74;96347.53;5108771;28;20185;-67
2021/07/04 04:07:42;;;;;;;7.60;6.90;;;;;;;20.50;66.79;96348.25;5103565;28;20201;-69
2021/07/04 04:10:10;;;;;;;9.03;7.50;;;;;;;20.54;66.56;96348.63;5105812;28;20303;-68
2021/07/04 04:12:36;;;;;;;8.00;7.20;;;;;;;20.46;66.62;96341.81;5097666;28;20181;-69
2021/07/04 04:15:01;;;;;;;7.60;6.90;;;;;;;20.59;66.42;96346.03;5099126;28;20434;-68
2021/07/04 04:17:30;;;;;;;9.23;7.00;;;;;;;20.49;66.91;96361.81;5098300;28;20219;-69
2021/07/04 04:19:55;;;;;;;8.57;7.37;;;;;;;20.54;66.74;96353.94;5095461;28;20189;-69
2021/07/04 04:22:21;;;;;;;7.30;6.60;;;;;;;20.50;66.57;96358.13;5092536;28;20946;-69
2021/07/04 04:24:48;;;;;;;8.30;6.57;;;;;;;20.55;66.67;96359.03;5092750;28;20300;-69
2021/07/04 04:27:14;;;;;;;7.57;6.97;;;;;;;20.54;66.69;96354.75;5092794;28;20202;-69
2021/07/04 04:29:39;;;;;;;7.47;6.77;;;;;;;20.65;66.56;96357.59;5092864;28;20419;-68
2021/07/04 04:32:05;;;;;;;7.67;6.83;;;;;;;20.36;67.16;96350.41;5093239;28;20416;-68
2021/07/04 04:34:31;;;;;;;8.27;6.60;;;;;;;20.38;67.16;96345.66;5092903;28;20264;-68
2021/07/04 04:36:57;;;;;;;7.10;6.50;;;;;;;20.41;67.31;96349.69;5093078;28;20997;-69
2021/07/04 04:39:22;;;;;;;8.90;7.57;;;;;;;20.42;67.17;96345.97;5092435;28;20190;-68
2021/07/04 04:41:49;;;;;;;10.87;6.77;;;;;;;20.53;66.92;96341.69;5092560;28;21017;-68
2021/07/04 04:44:15;;;;;;;8.60;7.47;;;;;;;20.54;66.57;96340.63;5090912;28;20637;-68
2021/07/04 04:46:40;;;;;;;8.60;6.53;;;;;;;20.51;66.91;96341.91;5093355;28;20436;-66
2021/07/04 04:49:06;;;;;;;8.27;7.47;;;;;;;20.62;66.50;96340.25;5092114;28;20185;-68
2021/07/04 04:51:32;;;;;;;7.53;6.83;;;;;;;20.53;66.61;96339.81;5092606;28;20188;-68
2021/07/04 04:53:58;;;;;;;9.40;7.50;;;;;;;20.57;66.50;96332.16;5092761;28;20810;-69
2021/07/04 04:56:23;;;;;;;9.40;7.00;;;;;;;20.64;66.20;96330.19;5092289;28;20676;-69
2021/07/04 04:58:49;;;;;;;8.40;6.40;;;;;;;20.64;66.59;96326.69;5092485;28;20185;-68
2021/07/04 05:01:15;;;;;;;8.37;7.30;;;;;;;20.63;66.53;96331.22;5092431;28;20182;-68
2021/07/04 05:03:40;;;;;;;8.70;6.97;;;;;;;20.59;66.52;96329.28;5091102;28;20575;-67
2021/07/04 05:06:06;;;;;;;8.10;7.40;;;;;;;20.65;66.41;96329.13;5092228;28;20200;-68
2021/07/04 05:08:32;;;;;;;8.10;7.27;;;;;;;20.74;65.96;96320.75;5092366;28;20681;-66
2021/07/04 05:10:57;;;;;;;7.60;6.80;;;;;;;20.79;66.27;96321.69;5092166;28;20644;-68
2021/07/04 05:13:23;;;;;;;8.50;7.60;;;;;;;20.77;65.88;96317.66;5088608;28;20285;-69
2021/07/04 05:15:49;;;;;;;8.50;7.53;;;;;;;20.78;65.75;96317.41;5093630;28;20207;-68
2021/07/04 05:18:15;;;;;;;7.90;7.10;;;;;;;20.88;65.78;96311.44;5091932;28;20420;-68
2021/07/04 05:20:41;;;;;;;11.53;6.70;;;;;;;20.87;65.65;96307.97;5092456;28;20424;-67
2021/07/04 05:23:06;;;;;;;6.80;6.10;;;;;;;20.90;65.69;96309.38;5091722;28;20198;-68
2021/07/04 05:25:32;;;;;;;8.10;7.10;;;;;;;21.08;65.08;96302.19;5092037;28;20200;-68
2021/07/04 05:27:57;;;;;;;6.90;6.30;;;;;;;21.22;64.49;96295.47;5092237;28;20646;-69
2021/07/04 05:30:23;;;;;;;16.23;7.20;;;;;;;21.12;64.08;96296.13;5091662;28;20181;-69
2021/07/04 05:32:48;;;;;;;9.00;7.63;;;;;;;21.23;64.08;96297.09;5092019;28;20623;-68
2021/07/04 05:35:14;;;;;;;7.23;6.43;;;;;;;21.39;63.33;96292.00;5091726;28;20203;-68
2021/07/04 05:37:40;;;;;;;7.00;6.40;;;;;;;21.47;63.44;96292.41;5091479;28;20197;-68
2021/07/04 05:40:12;;;;;;;11.13;6.67;;;;;;;21.52;63.36;96289.00;5091371;28;20280;-68
2021/07/04 05:42:38;;;;;;;8.07;7.27;;;;;;;21.65;62.65;96297.75;5087763;28;20556;-68
2021/07/04 05:45:09;;;;;;;7.70;6.90;;;;;;;21.73;62.41;96291.97;5091294;28;20424;-68
2021/07/04 05:47:34;;;;;;;12.10;8.40;;;;;;;21.99;61.60;96297.66;5091774;28;20212;-68
2021/07/04 05:50:00;;;;;;;8.10;6.93;;;;;;;22.12;61.43;96299.94;5090818;28;20744;-68
2021/07/04 05:52:26;;;;;;;7.50;6.30;;;;;;;22.32;60.87;96294.03;5087612;28;20541;-69
2021/07/04 05:54:51;;;;;;;7.67;6.63;;;;;;;22.47;60.06;96288.09;5090962;28;20203;-69
2021/07/04 05:57:17;;;;;;;7.20;6.47;;;;;;;22.31;60.47;96283.59;5091309;28;20332;-68
2021/07/04 05:59:42;;;;;;;12.70;6.60;;;;;;;22.12;60.74;96289.28;5091868;28;20178;-67
2021/07/04 06:02:09;;;;;;;6.67;5.97;;;;;;;22.15;60.95;96290.63;5091692;28;20192;-68
2021/07/04 06:04:34;;;;;;;6.20;5.67;;;;;;;22.18;61.08;96290.94;5091547;28;20205;-68
2021/07/04 06:07:00;;;;;;;6.80;6.20;;;;;;;22.13;60.74;96290.91;5092512;28;20454;-69
2021/07/04 06:09:25;;;;;;;7.50;6.73;;;;;;;22.10;61.02;96286.03;5083477;28;20200;-69
2021/07/04 06:11:51;;;;;;;7.30;6.17;;;;;;;22.22;60.29;96281.38;5092986;28;20182;-68
2021/07/04 06:14:17;;;;;;;6.87;6.20;;;;;;;22.30;60.50;96285.47;5093284;28;20178;-69
2021/07/04 06:16:43;;;;;;;7.57;6.50;;;;;;;22.37;60.61;96286.06;5091761;28;20225;-67
2021/07/04 06:19:08;;;;;;;8.30;6.63;;;;;;;22.49;60.19;96288.66;5091396;28;20181;-69
2021/07/04 06:21:34;;;;;;;6.70;6.00;;;;;;;22.55;59.86;96284.16;5092502;28;20209;-69
2021/07/04 06:23:59;;;;;;;7.40;6.37;;;;;;;22.77;59.55;96276.09;5090091;28;20212;-69
2021/07/04 06:26:25;;;;;;;7.30;6.60;;;;;;;22.95;58.25;96272.25;5095481;28;20205;-68
2021/07/04 06:28:51;;;;;;;10.70;6.90;;;;;;;22.99;58.21;96267.19;5095943;28;20188;-68
2021/07/04 06:31:16;;;;;;;6.63;5.70;;;;;;;23.32;57.04;96259.97;5077262;28;20651;-68
2021/07/04 06:33:42;;;;;;;6.23;5.70;;;;;;;23.65;56.54;96265.25;5095363;28;20654;-68
2021/07/04 06:36:08;;;;;;;6.30;5.77;;;;;;;23.88;55.45;96282.78;5095271;28;20293;-69
2021/07/04 06:38:33;;;;;;;5.93;5.37;;;;;;;23.85;55.56;96283.28;5093732;28;20269;-68
2021/07/04 06:40:59;;;;;;;8.13;5.90;;;;;;;23.74;55.18;96282.44;5095343;28;20185;-68
2021/07/04 06:43:24;;;;;;;5.57;5.10;;;;;;;24.16;54.28;96281.56;5094470;28;20205;-68
2021/07/04 06:45:52;;;;;;;5.30;4.80;;;;;;;24.45;54.43;96285.66;5095370;28;20276;-69
2021/07/04 06:48:18;;;;;;;6.73;5.70;;;;;;;24.53;53.51;96290.53;5095247;28;20278;-69
2021/07/04 06:50:43;;;;;;;6.53;5.30;;;;;;;24.61;53.52;96290.00;5095237;28;20416;-68
2021/07/04 06:53:09;;;;;;;11.30;5.67;;;;;;;24.53;53.79;96294.00;5093115;28;20177;-68
2021/07/04 06:55:35;;;;;;;5.97;5.43;;;;;;;24.57;53.10;96293.47;5095228;28;20651;-68
2021/07/04 06:58:00;;;;;;;8.97;5.20;;;;;;;24.71;52.54;96293.78;5093913;28;20201;-67
2021/07/04 07:00:27;;;;;;;5.30;4.90;;;;;;;24.86;52.41;96299.19;5095009;28;20585;-68
2021/07/04 07:02:53;;;;;;;7.63;5.20;;;;;;;25.02;52.06;96293.84;5095465;28;20216;-69
2021/07/04 07:05:19;;;;;;;6.10;5.10;;;;;;;24.82;51.87;96298.13;5093379;28;20458;-68
2021/07/04 07:07:45;;;;;;;5.87;5.37;;;;;;;25.22;51.05;96293.81;5094244;28;20810;-68
2021/07/04 07:10:12;;;;;;;5.57;4.60;;;;;;;25.35;51.32;96289.00;5094822;28;20427;-68
2021/07/04 07:12:41;;;;;;;5.47;4.97;;;;;;;25.94;50.25;96276.03;5094418;28;20471;-68
2021/07/04 07:15:08;;;;;;;6.57;5.60;;;;;;;26.18;49.25;96276.22;5103071;28;20415;-67
2021/07/04 07:17:34;;;;;;;7.97;5.93;;;;;;;26.10;48.43;96274.09;5094247;28;20439;-68
2021/07/04 07:20:00;;;;;;;9.77;6.27;;;;;;;26.00;48.33;96274.91;5094495;28;20419;-68
2021/07/04 07:22:25;;;;;;;4.93;4.53;;;;;;;25.94;48.46;96271.44;5086353;28;20221;-67
2021/07/04 07:24:51;;;;;;;14.17;8.73;;;;;;;25.96;49.36;96276.56;5093829;28;20206;-68
2021/07/04 07:27:17;;;;;;;6.50;5.23;;;;;;;25.92;48.92;96273.59;5094555;28;20548;-68
2021/07/04 07:29:43;;;;;;;5.70;4.70;;;;;;;25.83;49.01;96270.69;5094248;28;20182;-68
2021/07/04 07:32:08;;;;;;;8.00;5.20;;;;;;;25.27;50.23;96260.84;5094217;28;20419;-67
2021/07/04 07:34:34;;;;;;;6.83;5.60;;;;;;;24.85;50.79;96262.75;5094582;28;20427;-67
2021/07/04 07:37:00;;;;;;;10.03;7.10;;;;;;;24.84;51.66;96258.44;5092421;28;20231;-68
2021/07/04 07:39:25;;;;;;;6.20;5.03;;;;;;;25.19;51.42;96251.50;5063545;28;20263;-67
2021/07/04 07:41:51;;;;;;;7.73;6.30;;;;;;;25.65;49.74;96241.78;5088357;28;20174;-67
2021/07/04 07:44:17;;;;;;;7.13;5.87;;;;;;;25.70;49.24;96233.72;5092582;28;20839;-67
2021/07/04 07:46:43;;;;;;;5.63;5.13;;;;;;;25.89;48.31;96236.59;5091531;28;20548;-68
2021/07/04 07:49:09;;;;;;;8.03;6.53;;;;;;;25.95;48.95;96234.69;5092714;28;20181;-68
2021/07/04 07:51:35;;;;;;;7.60;5.27;;;;;;;25.94;48.49;96219.69;5096554;28;20200;-68
2021/07/04 07:54:09;;;;;;;6.10;5.57;;;;;;;25.95;48.93;96215.91;5072233;28;20185;-67
2021/07/04 07:56:34;;;;;;;6.40;5.37;;;;;;;26.15;48.51;96217.72;5092670;28;20942;-67
2021/07/04 07:59:00;;;;;;;13.10;5.53;;;;;;;26.59;47.50;96218.81;5091821;28;20192;-66
2021/07/04 08:01:26;;;;;;;9.07;5.40;;;;;;;26.73;46.78;96206.31;5066476;28;20170;-66
2021/07/04 08:03:52;;;;;;;7.63;5.50;;;;;;;26.66;46.17;96221.97;5092656;28;20198;-66
2021/07/04 08:06:17;;;;;;;6.07;5.57;;;;;;;27.18;44.94;96226.94;5080985;28;20206;-66
2021/07/04 08:08:43;;;;;;;9.80;8.00;;;;;;;27.25;44.79;96228.22;5093410;28;20181;-68
2021/07/04 08:11:09;;;;;;;11.60;7.37;;;;;;;27.15;45.26;96228.31;5094242;28;20190;-67
2021/07/04 08:13:35;;;;;;;9.33;7.23;;;;;;;27.63;44.01;96226.78;5096640;28;20174;-67
2021/07/04 08:16:00;;;;;;;12.93;8.33;;;;;;;27.42;43.91;96227.78;5098936;28;20675;-67
2021/07/04 08:18:29;;;;;;;8.90;7.70;;;;;;;27.33;44.16;96223.28;5101190;28;20731;-67
2021/07/04 08:20:55;;;;;;;6.00;5.40;;;;;;;27.31;43.65;96226.28;5096196;28;20193;-68
2021/07/04 08:23:20;;;;;;;6.00;5.47;;;;;;;27.14;44.73;96227.50;5093451;28;20459;-67
2021/07/04 08:25:47;;;;;;;6.10;5.50;;;;;;;26.65;45.43;96223.03;5095608;28;20234;-67
2021/07/04 08:28:13;;;;;;;6.30;5.50;;;;;;;26.98;44.60;96218.78;5099611;28;20177;-66
2021/07/04 08:30:38;;;;;;;5.83;5.23;;;;;;;26.94;44.61;96233.84;5098476;28;20420;-66
2021/07/04 08:33:04;;;;;;;5.53;5.03;;;;;;;27.13;43.80;96225.88;5096133;28;20548;-67
2021/07/04 08:35:30;;;;;;;9.13;5.10;;;;;;;27.44;43.46;96220.25;5093047;28;20265;-67
2021/07/04 08:37:56;;;;;;;5.67;5.13;;;;;;;26.74;44.14;96226.72;5091974;28;20218;-66
2021/07/04 08:40:21;;;;;;;5.80;5.07;;;;;;;27.25;43.69;96214.78;5091311;28;20528;-67
2021/07/04 08:42:47;;;;;;;5.70;5.20;;;;;;;27.36;43.03;96223.50;5091767;28;20185;-65
2021/07/04 08:45:13;;;;;;;6.70;5.10;;;;;;;27.35;43.15;96221.91;5091203;28;20645;-67
2021/07/04 08:47:38;;;;;;;7.87;4.87;;;;;;;28.39;41.05;96215.34;5090761;28;20202;-66
2021/07/04 08:50:05;;;;;;;4.60;4.20;;;;;;;29.12;39.56;96221.22;5091190;28;20189;-67
2021/07/04 08:52:32;;;;;;;6.33;5.73;;;;;;;28.69;40.45;96211.38;5089098;28;20200;-68
2021/07/04 08:54:58;;;;;;;5.20;4.80;;;;;;;28.09;41.16;96220.06;5090994;28;20407;-67
2021/07/04 08:57:23;;;;;;;5.30;4.90;;;;;;;28.62;40.65;96219.84;5091023;28;20845;-68
2021/07/04 08:59:49;;;;;;;5.60;4.90;;;;;;;29.13;39.54;96209.34;5090979;28;20695;-67
2021/07/04 09:02:39;;;;;;;7.87;4.50;;;;;;;28.68;40.26;96217.84;5090010;28;20185;-67
2021/07/04 09:05:10;;;;;;;6.50;5.00;;;;;;;28.60;39.72;96216.66;5090633;28;20501;-66
2021/07/04 09:07:37;;;;;;;4.53;4.13;;;;;;;28.65;39.08;96223.84;5091050;28;20446;-66
2021/07/04 09:10:05;;;;;;;4.50;4.10;;;;;;;28.61;38.93;96212.84;5091680;28;20435;-66
2021/07/04 09:12:39;;;;;;;5.03;4.20;;;;;;;28.13;40.20;96223.78;5093861;28;20423;-67
2021/07/04 09:15:25;;;;;;;10.77;4.10;;;;;;;27.46;40.71;96211.09;5090649;28;20478;-67
2021/07/04 09:17:53;;;;;;;4.60;3.97;;;;;;;27.56;41.30;96213.69;5090900;28;20439;-67
2021/07/04 09:20:29;;;;;;;4.57;4.17;;;;;;;27.49;41.10;96210.50;5090929;28;20449;-66
2021/07/04 09:22:55;;;;;;;4.00;3.70;;;;;;;27.30;41.59;96203.16;5088703;28;20432;-67
2021/07/04 09:25:26;;;;;;;3.97;3.67;;;;;;;27.39;41.17;96197.97;5090052;28;20511;-67
2021/07/04 09:28:13;;;;;;;4.13;3.83;;;;;;;27.04;42.28;96195.34;5090813;28;20527;-65
2021/07/04 09:30:38;;;;;;;3.40;3.10;;;;;;;26.86;41.22;96196.03;5084541;28;20621;-66
2021/07/04 09:33:19;;;;;;;3.87;3.57;;;;;;;27.08;41.47;96193.69;5090639;28;20990;-66
2021/07/04 09:36:05;;;;;;;4.30;3.90;;;;;;;27.55;40.92;96182.47;5090637;28;20200;-65
2021/07/04 09:38:34;;;;;;;4.03;3.73;;;;;;;27.77;40.46;96183.81;5090736;28;20447;-66
2021/07/04 09:41:01;;;;;;;4.30;3.90;;;;;;;28.09;40.08;96177.78;5090841;28;20423;-65
2021/07/04 09:43:27;;;;;;;5.73;3.90;;;;;;;27.60;41.12;96174.31;5090439;28;20478;-67
2021/07/04 09:46:04;;;;;;;4.93;3.83;;;;;;;27.77;41.31;96171.19;5090759;28;20416;-66
2021/07/04 09:48:30;;;;;;;5.50;4.27;;;;;;;27.71;41.86;96180.41;5082902;28;20518;-66
2021/07/04 09:50:58;;;;;;;4.73;4.33;;;;;;;28.09;41.25;96172.41;5090660;28;20503;-67
2021/07/04 09:53:36;;;;;;;7.60;4.03;;;;;;;28.43;40.15;96171.34;5087235;28;20169;-67
2021/07/04 09:56:12;;;;;;;4.50;4.00;;;;;;;27.88;39.59;96172.66;5090398;28;20873;-67
2021/07/04 09:58:39;;;;;;;5.97;4.17;;;;;;;28.27;39.88;96162.72;5090729;28;20408;-66
2021/07/04 10:01:06;;;;;;;4.40;4.00;;;;;;;28.61;38.83;96156.25;5093926;28;20423;-67
2021/07/04 10:03:31;;;;;;;5.73;3.80;;;;;;;28.59;39.55;96157.66;5093063;28;20524;-67
2021/07/04 10:05:57;;;;;;;4.17;3.87;;;;;;;28.60;38.91;96151.16;5093266;28;20420;-67
2021/07/04 10:08:41;;;;;;;4.10;3.80;;;;;;;28.72;38.15;96153.41;5094386;28;20178;-67
2021/07/04 10:11:09;;;;;;;4.17;3.50;;;;;;;29.00;38.12;96157.00;5094077;28;20277;-67
2021/07/04 10:13:37;;;;;;;4.40;4.07;;;;;;;28.56;39.08;96150.16;5094165;28;20920;-66
2021/07/04 10:16:05;;;;;;;4.10;3.70;;;;;;;28.64;38.80;96146.81;5094250;28;20412;-67
2021/07/04 10:18:31;;;;;;;4.20;3.83;;;;;;;28.87;37.63;96147.78;5092715;28;20407;-67
2021/07/04 10:20:56;;;;;;;3.60;3.20;;;;;;;28.38;38.99;96144.50;5094157;28;20418;-67
2021/07/04 10:23:24;;;;;;;4.23;3.83;;;;;;;28.02;39.43;96145.81;5091735;28;20447;-67
2021/07/04 10:25:51;;;;;;;4.60;4.20;;;;;;;28.38;39.59;96144.50;5094021;28;20182;-67
2021/07/04 10:28:24;;;;;;;4.70;4.30;;;;;;;27.98;39.72;96144.00;5094031;28;20434;-66
2021/07/04 10:30:50;;;;;;;4.60;4.20;;;;;;;27.81;40.69;96147.19;5094169;28;20422;-67
2021/07/04 10:33:24;;;;;;;4.30;4.00;;;;;;;28.05;39.88;96142.53;5093506;28;20408;-67
2021/07/04 10:36:09;;;;;;;4.77;4.27;;;;;;;27.43;41.79;96150.56;5094486;28;20473;-66
2021/07/04 10:38:42;;;;;;;4.50;4.10;;;;;;;27.22;42.48;96152.69;5094486;28;20431;-67
2021/07/04 10:41:09;;;;;;;4.50;4.10;;;;;;;27.36;42.47;96142.03;5094102;28;20502;-66
2021/07/04 10:43:55;;;;;;;4.67;4.27;;;;;;;27.39;42.57;96138.78;5093608;28;20444;-67
2021/07/04 10:46:40;;;;;;;4.40;4.10;;;;;;;27.01;43.70;96141.34;5093568;28;20518;-66
2021/07/04 10:49:10;;;;;;;5.33;4.93;;;;;;;27.15;43.50;96131.53;5093579;28;20432;-66
2021/07/04 10:52:02;;;;;;;5.10;4.60;;;;;;;27.28;42.97;96130.81;5093997;28;20412;-66
2021/07/04 10:54:50;;;;;;;13.20;7.33;;;;;;;27.54;42.24;96124.38;5085358;28;20415;-68
2021/07/04 10:57:34;;;;;;;10.67;7.70;;;;;;;27.46;42.40;96130.41;5093648;28;20436;-65
2021/07/04 10:59:59;;;;;;;11.67;9.43;;;;;;;27.16;43.35;96126.94;5093996;28;20729;-67
2021/07/04 11:02:40;;;;;;;5.53;4.90;;;;;;;26.63;44.15;96123.94;5093198;28;20492;-67
2021/07/04 11:05:06;;;;;;;8.07;4.90;;;;;;;26.80;44.89;96125.41;5094874;28;20205;-67
2021/07/04 11:07:54;;;;;;;4.60;4.10;;;;;;;26.69;44.00;96119.31;5093737;28;20953;-67
2021/07/04 11:10:21;;;;;;;5.03;4.27;;;;;;;26.47;45.36;96120.56;5096452;28;20400;-68
2021/07/04 11:12:48;;;;;;;5.80;4.37;;;;;;;27.25;43.34;96109.09;5093252;28;20450;-68
2021/07/04 11:15:13;;;;;;;6.83;6.13;;;;;;;27.44;42.99;96096.53;5092774;28;20575;-67
2021/07/04 11:17:58;;;;;;;4.17;3.87;;;;;;;27.36;42.73;96090.94;5093261;28;20929;-67
2021/07/04 11:20:47;;;;;;;6.37;5.03;;;;;;;28.08;41.36;96070.34;5093716;28;20185;-67
2021/07/04 11:23:28;;;;;;;5.80;4.20;;;;;;;27.68;41.80;96067.94;5090753;28;20531;-67
2021/07/04 11:25:55;;;;;;;5.63;5.07;;;;;;;27.37;41.96;96063.75;5092955;28;20446;-68
2021/07/04 11:28:36;;;;;;;6.17;5.07;;;;;;;26.50;43.64;96065.50;5091304;28;20662;-68
2021/07/04 11:31:02;;;;;;;4.90;4.40;;;;;;;26.83;43.66;96058.47;5092747;28;20422;-69
2021/07/04 11:33:47;;;;;;;5.13;3.63;;;;;;;27.53;41.39;96045.56;5092654;28;20416;-68